Time;durP1;ratioP1;P1;durP2;ratioP2;P2;SDS_P1;SDS_P2;PMS_P1;PMS_P2;Temp;Humidity;BMP_temperature;BMP_pressure;BME280_temperature;BME280_humidity;BME280_pressure;Samples;Min_cycle;Max_cycle;Signal;HPM_P1;HPM_P2
2020/12/27 00:00:24;;;;;;;39.63;17.27;;;;;;;-0.19;86.93;100506.98;1758693;80;20982;-69
2020/12/27 00:02:50;;;;;;;43.10;17.13;;;;;;;-0.41;86.70;100472.17;1757406;80;21956;-68
2020/12/27 00:05:16;;;;;;;41.37;16.73;;;;;;;-0.16;86.63;100503.36;1763389;80;21018;-69
2020/12/27 00:07:41;;;;;;;39.50;16.33;;;;;;;-0.30;86.84;100501.94;1756304;80;21361;-68
2020/12/27 00:10:07;;;;;;;32.37;13.80;;;;;;;-0.32;86.87;100506.38;1763506;80;21677;-68
2020/12/27 00:12:34;;;;;;;35.77;14.90;;;;;;;-0.32;86.77;100505.91;1760825;80;20923;-67
2020/12/27 00:15:00;;;;;;;39.98;16.40;;;;;;;-0.37;86.76;100503.55;1760614;80;21189;-69
2020/12/27 00:17:26;;;;;;;39.25;16.90;;;;;;;-0.40;87.04;100499.81;1756710;80;21225;-69
2020/12/27 00:19:51;;;;;;;44.20;17.00;;;;;;;-0.49;87.29;100500.27;1762465;80;21176;-68
2020/12/27 00:22:20;;;;;;;35.43;15.77;;;;;;;-0.49;87.32;100497.67;1766560;80;20925;-69
2020/12/27 00:24:45;;;;;;;;;;;;;;;-0.39;87.18;100496.30;1763651;80;21193;-70
2020/12/27 00:27:11;;;;;;;35.80;14.50;;;;;;;-0.35;87.02;100498.75;1758968;80;24900;-69
2020/12/27 00:29:36;;;;;;;41.53;17.23;;;;;;;-0.45;86.83;100501.80;1761441;80;21123;-70
2020/12/27 00:32:02;;;;;;;34.73;15.70;;;;;;;-0.47;87.19;100498.42;1761083;80;21139;-67
2020/12/27 00:34:28;;;;;;;32.30;15.30;;;;;;;-0.37;86.84;100489.28;1763595;80;21709;-69
2020/12/27 00:36:57;;;;;;;32.90;15.50;;;;;;;-0.33;86.45;100493.84;1757549;80;21057;-69
2020/12/27 00:39:23;;;;;;;29.95;13.32;;;;;;;-0.32;86.44;100486.92;1743215;80;21248;-69
2020/12/27 00:41:49;;;;;;;35.58;15.28;;;;;;;-0.41;86.27;100486.45;1748678;80;21258;-69
2020/12/27 00:44:16;;;;;;;36.13;15.07;;;;;;;-0.41;86.44;100486.91;1741745;80;21082;-67
2020/12/27 00:46:44;;;;;;;28.95;12.73;;;;;;;-0.48;86.44;100487.69;1744996;80;21167;-68
2020/12/27 00:49:09;;;;;;;;;;;;;;;-0.51;86.52;100493.47;1744820;80;21196;-68
2020/12/27 00:51:35;;;;;;;34.35;13.80;;;;;;;-0.55;86.69;100494.91;1749366;80;20246;-68
2020/12/27 00:54:01;;;;;;;26.87;13.03;;;;;;;-0.50;86.64;100492.09;1711994;82;20959;-68
2020/12/27 00:56:26;;;;;;;34.20;14.07;;;;;;;-0.48;86.42;100490.28;1745844;80;21602;-67
2020/12/27 00:58:52;;;;;;;31.10;13.87;;;;;;;-0.39;86.28;100488.52;1741329;80;21664;-67
2020/12/27 01:01:18;;;;;;;34.43;14.37;;;;;;;-0.39;85.97;100482.04;1744536;80;20970;-67
2020/12/27 01:03:44;;;;;;;38.53;14.10;;;;;;;-0.31;85.86;100473.00;1745749;80;20974;-68
2020/12/27 01:06:10;;;;;;;34.57;14.50;;;;;;;-0.28;85.46;100479.33;1746725;80;20905;-68
2020/12/27 01:08:36;;;;;;;33.67;15.10;;;;;;;-0.30;85.20;100482.01;1745999;80;21234;-67
2020/12/27 01:11:03;;;;;;;33.03;14.27;;;;;;;-0.47;85.34;100478.97;1745986;80;21033;-68
2020/12/27 01:13:28;;;;;;;28.33;13.63;;;;;;;-0.54;85.56;100484.10;1743027;80;21191;-67
2020/12/27 01:15:54;;;;;;;31.50;13.57;;;;;;;-0.61;85.78;100474.94;1742925;80;21944;-66
2020/12/27 01:18:20;;;;;;;33.10;14.45;;;;;;;-0.69;85.89;100469.30;1744263;80;21169;-68
2020/12/27 01:20:46;;;;;;;34.83;14.07;;;;;;;-0.73;86.20;100466.00;1749554;80;21089;-67
2020/12/27 01:23:12;;;;;;;30.23;13.50;;;;;;;-0.72;86.08;100463.80;1742158;80;21613;-68
2020/12/27 01:25:38;;;;;;;34.43;14.00;;;;;;;-0.79;86.17;100459.39;1743973;80;21664;-69
2020/12/27 01:28:03;;;;;;;35.17;15.10;;;;;;;-0.72;86.19;100452.13;1742759;80;21697;-67
2020/12/27 01:30:29;;;;;;;38.33;14.67;;;;;;;-0.73;85.93;100442.66;1743702;80;21670;-68
2020/12/27 01:32:55;;;;;;;38.83;14.70;;;;;;;-0.73;86.01;100446.12;1746831;80;21325;-69
2020/12/27 01:35:21;;;;;;;30.00;13.47;;;;;;;-0.82;85.92;100445.27;1743390;80;20960;-68
2020/12/27 01:37:46;;;;;;;35.37;14.90;;;;;;;-0.79;86.08;100445.59;1748705;80;21030;-68
2020/12/27 01:40:12;;;;;;;32.90;14.30;;;;;;;-0.81;85.92;100440.48;1741490;81;21013;-68
2020/12/27 01:42:38;;;;;;;38.60;14.90;;;;;;;-0.88;86.06;100436.51;1743761;80;20916;-68
2020/12/27 01:45:04;;;;;;;34.90;14.43;;;;;;;-0.83;86.04;100424.14;1745722;80;21030;-67
2020/12/27 01:47:34;;;;;;;34.93;13.57;;;;;;;-0.85;86.04;100420.80;1743737;80;21002;-68
2020/12/27 01:50:01;;;;;;;30.30;13.43;;;;;;;-0.83;85.77;100426.73;1742880;81;21500;-69
2020/12/27 01:52:27;;;;;;;32.63;13.83;;;;;;;-0.81;85.75;100423.63;1746666;80;21224;-68
2020/12/27 01:54:53;;;;;;;37.40;13.30;;;;;;;-0.77;85.53;100414.77;1743338;80;20933;-69
2020/12/27 01:57:24;;;;;;;32.33;13.77;;;;;;;-0.83;85.60;100415.06;1746802;80;21426;-68
2020/12/27 01:59:51;;;;;;;34.08;14.73;;;;;;;-0.97;85.97;100398.08;1747330;80;21185;-68
2020/12/27 02:02:17;;;;;;;32.65;13.72;;;;;;;-0.97;85.97;100398.08;1746829;80;21158;-67
2020/12/27 02:04:42;;;;;;;35.13;13.60;;;;;;;-0.83;85.59;100418.95;1741865;80;20936;-67
2020/12/27 02:07:08;;;;;;;38.30;13.87;;;;;;;-0.85;85.11;100414.31;1745103;80;21036;-67
2020/12/27 02:09:38;;;;;;;33.13;13.60;;;;;;;-0.77;85.24;100418.66;1747955;80;21982;-68
2020/12/27 02:12:11;;;;;;;33.45;13.25;;;;;;;-0.71;84.97;100417.52;1743230;80;21785;-69
2020/12/27 02:14:37;;;;;;;33.40;14.07;;;;;;;-0.64;84.67;100414.14;1741626;80;21233;-68
2020/12/27 02:17:07;;;;;;;29.65;13.13;;;;;;;-0.68;84.42;100404.83;1744763;80;21202;-67
2020/12/27 02:19:32;;;;;;;33.55;13.10;;;;;;;-0.56;84.17;100411.55;1746299;80;21276;-68
2020/12/27 02:22:02;;;;;;;34.83;12.70;;;;;;;-0.54;83.84;100416.66;1748005;80;21801;-67
2020/12/27 02:24:27;;;;;;;32.30;13.32;;;;;;;-0.58;83.61;100407.35;1743424;80;21236;-67
2020/12/27 02:26:57;;;;;;;32.47;13.37;;;;;;;-0.51;83.76;100406.13;1747990;80;20968;-67
2020/12/27 02:29:24;;;;;;;38.33;13.18;;;;;;;-0.56;83.37;100405.50;1745238;80;21694;-67
2020/12/27 02:31:51;;;;;;;36.63;13.67;;;;;;;-0.55;83.31;100402.00;1743343;80;21208;-66
2020/12/27 02:34:17;;;;;;;29.98;12.03;;;;;;;-0.66;83.25;100395.23;1750215;80;21389;-67
2020/12/27 02:36:42;;;;;;;26.10;11.77;;;;;;;-0.70;83.30;100392.41;1742961;80;20896;-67
2020/12/27 02:39:12;;;;;;;33.00;13.00;;;;;;;-0.69;83.30;100385.02;1744891;80;21073;-66
2020/12/27 02:41:37;;;;;;;31.42;12.23;;;;;;;-0.58;83.29;100382.23;1746196;80;21178;-66
2020/12/27 02:44:04;;;;;;;28.63;12.03;;;;;;;-0.56;82.83;100380.43;1746695;80;21000;-66
2020/12/27 02:46:30;;;;;;;29.67;12.47;;;;;;;-0.56;82.81;100379.56;1744022;80;21169;-66
2020/12/27 02:48:56;;;;;;;29.77;11.75;;;;;;;-0.55;82.60;100363.09;1743251;80;21126;-66
2020/12/27 02:51:21;;;;;;;29.37;12.20;;;;;;;-0.60;82.47;100367.70;1746057;80;21035;-67
2020/12/27 02:53:48;;;;;;;30.47;12.40;;;;;;;-0.60;82.43;100361.21;1743895;80;23390;-67
2020/12/27 02:56:18;;;;;;;30.62;12.60;;;;;;;-0.75;82.26;100353.75;1742860;80;21240;-66
2020/12/27 02:58:45;;;;;;;29.45;12.20;;;;;;;-0.71;82.42;100352.69;1747215;80;21142;-66
2020/12/27 03:01:10;;;;;;;28.92;11.95;;;;;;;-0.78;82.26;100339.21;1746223;80;21192;-67
2020/12/27 03:03:36;;;;;;;33.73;13.03;;;;;;;-0.74;82.37;100334.70;1743160;80;20952;-66
2020/12/27 03:06:02;;;;;;;37.15;12.75;;;;;;;-0.78;82.15;100332.73;1747638;80;21234;-66
2020/12/27 03:08:28;;;;;;;30.87;12.53;;;;;;;-0.82;82.39;100332.49;1749159;80;20954;-68
2020/12/27 03:10:54;;;;;;;31.87;12.13;;;;;;;-0.79;82.16;100327.62;1743140;80;21352;-68
2020/12/27 03:13:19;;;;;;;27.73;11.03;;;;;;;-0.78;82.03;100330.13;1743584;80;22297;-68
2020/12/27 03:15:45;;;;;;;29.37;11.80;;;;;;;-0.73;82.01;100317.76;1747557;80;20990;-68
2020/12/27 03:18:11;;;;;;;27.67;11.37;;;;;;;-0.66;82.00;100324.75;1743713;80;22944;-68
2020/12/27 03:20:36;;;;;;;28.43;12.27;;;;;;;-0.67;81.42;100322.23;1741960;81;21427;-67
2020/12/27 03:23:02;;;;;;;33.43;12.87;;;;;;;-0.69;81.12;100327.97;1745290;80;21411;-67
2020/12/27 03:25:28;;;;;;;30.53;12.80;;;;;;;-0.78;81.07;100323.66;1744383;80;20940;-66
2020/12/27 03:27:54;;;;;;;31.33;11.60;;;;;;;-0.88;81.13;100323.73;1744497;80;20956;-67
2020/12/27 03:30:19;;;;;;;26.47;11.57;;;;;;;-0.83;81.46;100338.59;1746953;80;20934;-67
2020/12/27 03:32:45;;;;;;;29.43;11.50;;;;;;;-0.79;81.47;100333.63;1744767;80;21614;-67
2020/12/27 03:35:11;;;;;;;31.83;11.57;;;;;;;-0.69;81.41;100329.27;1744329;80;21864;-67
2020/12/27 03:37:36;;;;;;;32.27;11.70;;;;;;;-0.65;81.04;100328.17;1746933;80;21042;-68
2020/12/27 03:40:05;;;;;;;27.10;11.10;;;;;;;-0.60;80.70;100328.80;1747977;80;20982;-68
2020/12/27 03:42:30;;;;;;;25.97;11.18;;;;;;;-0.58;80.50;100332.13;1746485;80;21198;-68
2020/12/27 03:44:56;;;;;;;28.10;11.17;;;;;;;-0.57;80.21;100328.63;1745792;80;20943;-68
2020/12/27 03:47:22;;;;;;;30.93;11.67;;;;;;;-0.52;79.96;100333.58;1744537;80;21364;-68
2020/12/27 03:49:48;;;;;;;27.07;10.77;;;;;;;-0.66;79.58;100342.08;1746153;80;21627;-68
2020/12/27 03:52:13;;;;;;;29.13;10.80;;;;;;;-0.62;79.79;100340.54;1745585;80;21024;-68
2020/12/27 03:54:39;;;;;;;26.50;11.20;;;;;;;-0.56;79.58;100335.47;1743278;80;20970;-68
2020/12/27 03:57:05;;;;;;;28.67;10.90;;;;;;;-0.61;79.48;100342.66;1746446;80;20923;-68
2020/12/27 03:59:30;;;;;;;34.20;12.93;;;;;;;-0.60;79.31;100344.36;1742958;80;21375;-69
2020/12/27 04:01:56;;;;;;;29.70;10.90;;;;;;;-0.70;79.04;100340.55;1743655;80;21006;-68
2020/12/27 04:04:22;;;;;;;27.93;11.20;;;;;;;-0.66;79.05;100336.89;1744974;80;20948;-68
2020/12/27 04:06:48;;;;;;;31.03;11.47;;;;;;;-0.60;79.36;100331.38;1743782;80;20907;-68
2020/12/27 04:09:13;;;;;;;24.47;10.23;;;;;;;-0.57;79.23;100327.33;1743260;81;21311;-68
2020/12/27 04:11:39;;;;;;;26.27;10.70;;;;;;;-0.65;78.80;100318.66;1745190;80;21098;-67
2020/12/27 04:14:05;;;;;;;28.83;11.63;;;;;;;-0.58;79.06;100324.34;1749412;80;21018;-68
2020/12/27 04:16:31;;;;;;;30.03;10.53;;;;;;;-0.58;78.71;100324.34;1748017;80;21597;-68
2020/12/27 04:18:56;;;;;;;28.43;11.43;;;;;;;-0.56;78.74;100323.36;1747948;80;21864;-68
2020/12/27 04:21:22;;;;;;;27.40;11.17;;;;;;;-0.59;78.49;100322.66;1745364;80;22166;-68
2020/12/27 04:23:48;;;;;;;28.47;10.87;;;;;;;-0.57;78.44;100313.07;1742844;80;21852;-68
2020/12/27 04:26:15;;;;;;;25.50;10.13;;;;;;;-0.64;78.31;100311.70;1743273;80;21129;-66
2020/12/27 04:28:40;;;;;;;26.97;10.33;;;;;;;-0.60;78.50;100308.05;1742623;80;21169;-68
2020/12/27 04:31:18;;;;;;;29.20;11.33;;;;;;;-0.58;78.20;100303.13;1745300;80;23359;-68
2020/12/27 04:33:45;;;;;;;24.80;10.50;;;;;;;-0.65;77.95;100291.86;1737173;80;21212;-68
2020/12/27 04:36:10;;;;;;;28.07;10.88;;;;;;;-0.61;78.09;100288.20;1743139;81;21300;-69
2020/12/27 04:38:36;;;;;;;29.10;10.67;;;;;;;-0.56;78.14;100290.08;1743106;81;20954;-69
2020/12/27 04:41:02;;;;;;;26.57;10.93;;;;;;;-0.59;78.10;100282.46;1747904;81;21275;-68
2020/12/27 04:43:28;;;;;;;26.48;10.75;;;;;;;-0.59;77.69;100279.88;1750732;81;21169;-68
2020/12/27 04:46:04;;;;;;;31.07;11.10;;;;;;;-0.57;77.78;100280.65;1747229;81;21018;-69
2020/12/27 04:48:27;;;;;;;31.87;11.75;;;;;;;-0.64;77.28;100280.58;1746853;81;21204;-67
2020/12/27 04:50:53;;;;;;;29.77;12.07;;;;;;;-0.70;77.48;100274.42;1746942;81;21069;-68
2020/12/27 04:53:20;;;;;;;30.00;13.10;;;;;;;-0.73;77.53;100274.11;1751673;81;21708;-68
2020/12/27 04:55:46;;;;;;;32.48;12.90;;;;;;;-0.85;77.91;100274.78;1746678;81;21219;-68
2020/12/27 04:58:17;;;;;;;34.75;12.43;;;;;;;-0.83;78.06;100284.14;1732003;81;21195;-68
2020/12/27 05:00:43;;;;;;;29.60;12.10;;;;;;;-0.77;78.22;100290.30;1750287;81;21609;-67
2020/12/27 05:03:08;;;;;;;32.40;12.87;;;;;;;-0.70;78.09;100283.50;1743445;81;20939;-68
2020/12/27 05:05:34;;;;;;;31.07;12.33;;;;;;;-0.67;77.67;100285.93;1744036;81;20964;-68
2020/12/27 05:08:00;;;;;;;31.70;11.77;;;;;;;-0.66;77.63;100283.73;1742106;81;21008;-68
2020/12/27 05:10:26;;;;;;;32.43;13.00;;;;;;;-0.62;77.64;100278.73;1746417;81;21033;-68
2020/12/27 05:12:53;;;;;;;31.77;13.37;;;;;;;-0.57;77.40;100280.17;1748827;80;21104;-69
2020/12/27 05:15:21;;;;;;;;;;;;;;;-0.55;77.21;100278.80;1744295;80;21535;-69
2020/12/27 05:17:47;;;;;;;27.42;11.43;;;;;;;-0.57;76.67;100281.95;1716444;81;20300;-68
2020/12/27 05:20:14;;;;;;;31.45;12.23;;;;;;;-0.64;76.76;100283.17;1744971;81;21521;-68
2020/12/27 05:22:41;;;;;;;34.45;13.25;;;;;;;-0.57;77.23;100287.13;1746235;80;21523;-68
2020/12/27 05:25:07;;;;;;;37.13;13.90;;;;;;;-0.57;76.91;100280.65;1742694;81;21638;-68
2020/12/27 05:27:36;;;;;;;31.30;13.27;;;;;;;-0.64;76.73;100267.62;1744015;81;21566;-68
2020/12/27 05:30:02;;;;;;;36.98;14.58;;;;;;;-0.78;76.50;100274.39;1724162;81;21190;-68
2020/12/27 05:32:31;;;;;;;32.53;14.57;;;;;;;-0.88;76.81;100256.33;1697480;81;21008;-69
2020/12/27 05:34:58;;;;;;;40.70;14.90;;;;;;;-0.77;76.92;100266.97;1746169;81;21176;-68
2020/12/27 05:37:26;;;;;;;37.30;14.78;;;;;;;-0.75;76.96;100281.97;1746315;81;21807;-68
2020/12/27 05:39:51;;;;;;;32.85;13.95;;;;;;;-0.71;76.88;100276.19;1743314;80;21237;-68
2020/12/27 05:42:24;;;;;;;34.17;13.77;;;;;;;-0.76;76.52;100281.61;1745546;80;20933;-69
2020/12/27 05:44:50;;;;;;;39.83;14.63;;;;;;;-0.75;76.59;100283.27;1745198;80;21226;-69
2020/12/27 05:47:16;;;;;;;38.58;14.85;;;;;;;-0.73;76.77;100285.34;1744793;80;21197;-68
2020/12/27 05:49:42;;;;;;;35.67;14.77;;;;;;;-0.69;76.87;100280.00;1747813;80;21752;-68
2020/12/27 05:52:12;;;;;;;38.37;15.70;;;;;;;-0.69;76.59;100269.62;1743619;81;20955;-70
2020/12/27 05:54:38;;;;;;;39.40;15.60;;;;;;;-0.68;76.31;100272.58;1744207;80;21198;-68
2020/12/27 05:57:04;;;;;;;41.00;16.60;;;;;;;-0.70;76.54;100273.95;1713719;80;21082;-68
2020/12/27 05:59:33;;;;;;;41.63;16.48;;;;;;;-0.68;76.31;100272.58;1746854;80;21162;-69
2020/12/27 06:01:59;;;;;;;41.60;17.12;;;;;;;-0.68;76.31;100272.58;1747453;80;22268;-68
2020/12/27 06:04:47;;;;;;;43.17;16.45;;;;;;;-0.68;76.28;100268.69;1749544;80;21587;-68
2020/12/27 06:07:38;;;;;;;40.83;16.73;;;;;;;-0.72;76.14;100264.95;1744531;80;21705;-68
2020/12/27 06:10:09;;;;;;;43.30;16.23;;;;;;;-0.78;76.42;100264.02;1745445;80;21153;-67
2020/12/27 06:13:00;;;;;;;42.25;16.50;;;;;;;-0.86;76.32;100257.08;1744651;80;21186;-68
2020/12/27 06:15:29;;;;;;;41.18;17.17;;;;;;;-0.82;76.16;100267.68;1743734;80;21871;-69
2020/12/27 06:18:08;;;;;;;47.78;18.87;;;;;;;-0.84;76.40;100266.93;1743270;80;21150;-68
2020/12/27 06:20:36;;;;;;;45.83;17.87;;;;;;;-0.86;76.57;100270.04;1745865;80;21197;-68
2020/12/27 06:23:03;;;;;;;43.85;17.87;;;;;;;-0.84;76.66;100267.37;1747305;80;21149;-67
2020/12/27 06:25:29;;;;;;;40.52;16.57;;;;;;;-0.78;76.74;100265.31;1744941;80;21201;-68
2020/12/27 06:27:56;;;;;;;44.13;17.57;;;;;;;-0.79;76.31;100257.14;1743614;80;22107;-68
2020/12/27 06:30:25;;;;;;;44.50;18.25;;;;;;;-0.75;76.16;100265.59;1744128;80;21209;-68
2020/12/27 06:32:56;;;;;;;45.00;18.20;;;;;;;-0.75;76.25;100261.70;1743582;80;21166;-70
2020/12/27 06:35:34;;;;;;;43.17;17.30;;;;;;;-0.75;76.03;100271.60;1744897;80;21194;-67
2020/12/27 06:38:00;;;;;;;40.45;17.67;;;;;;;-0.72;76.08;100263.66;1745316;80;21161;-69
2020/12/27 06:40:25;;;;;;;45.47;17.90;;;;;;;-0.81;75.95;100256.40;1744727;80;21190;-68
2020/12/27 06:42:53;;;;;;;41.37;17.33;;;;;;;-0.84;75.87;100260.45;1740914;81;21012;-68
2020/12/27 06:45:29;;;;;;;41.08;17.60;;;;;;;-0.91;75.98;100257.31;1739584;81;21131;-69
2020/12/27 06:47:57;;;;;;;37.20;17.10;;;;;;;-0.86;76.07;100260.14;1746347;81;21279;-68
2020/12/27 06:50:25;;;;;;;44.40;18.02;;;;;;;-0.83;76.11;100257.39;1750701;81;21166;-68
2020/12/27 06:52:51;;;;;;;42.00;17.27;;;;;;;-0.81;76.17;100255.10;1742048;81;21835;-68
2020/12/27 06:55:35;;;;;;;41.73;18.02;;;;;;;-0.79;75.67;100254.55;1747389;81;21180;-68
2020/12/27 06:58:23;;;;;;;36.10;16.40;;;;;;;-0.73;75.79;100262.01;1745516;81;22130;-68
2020/12/27 07:01:08;;;;;;;43.68;18.20;;;;;;;-0.70;75.74;100260.16;1744913;81;21174;-68
2020/12/27 07:03:34;;;;;;;41.70;17.65;;;;;;;-0.82;75.53;100253.42;1731805;81;21216;-68
2020/12/27 07:06:20;;;;;;;45.00;17.77;;;;;;;-0.76;75.55;100250.50;1740520;81;21180;-67
2020/12/27 07:08:46;;;;;;;40.17;17.27;;;;;;;-0.73;75.55;100251.64;1741627;81;21613;-69
2020/12/27 07:11:20;;;;;;;42.80;17.83;;;;;;;-0.72;75.46;100244.22;1745719;81;22305;-67
2020/12/27 07:13:46;;;;;;;43.35;17.52;;;;;;;-0.75;75.34;100244.84;1745418;81;21245;-68
2020/12/27 07:16:15;;;;;;;41.60;18.60;;;;;;;-0.80;75.43;100247.68;1742629;81;21690;-70
2020/12/27 07:18:40;;;;;;;41.53;18.10;;;;;;;-0.74;75.57;100240.87;1748660;80;21240;-69
2020/12/27 07:21:13;;;;;;;44.17;19.07;;;;;;;-0.70;75.55;100239.42;1745547;80;20956;-69
2020/12/27 07:23:58;;;;;;;44.00;18.62;;;;;;;-0.68;75.41;100230.64;1745785;81;21614;-69
2020/12/27 07:26:24;;;;;;;43.52;18.35;;;;;;;-0.69;75.64;100238.51;1681032;81;21204;-69
2020/12/27 07:28:53;;;;;;;44.37;18.27;;;;;;;-0.65;75.50;100232.22;1744710;80;21744;-69
2020/12/27 07:31:18;;;;;;;42.20;18.32;;;;;;;-0.62;75.54;100237.23;1718782;81;21652;-67
2020/12/27 07:33:45;;;;;;;42.40;18.17;;;;;;;-0.60;75.37;100231.53;1749612;81;20999;-67
2020/12/27 07:36:11;;;;;;;43.52;18.00;;;;;;;-0.63;75.15;100232.52;1749198;81;21137;-67
2020/12/27 07:38:48;;;;;;;44.53;18.37;;;;;;;-0.57;75.42;100228.30;1749486;81;22885;-67
2020/12/27 07:41:21;;;;;;;46.77;18.45;;;;;;;-0.49;75.39;100230.48;1746330;80;21194;-66
2020/12/27 07:43:47;;;;;;;47.38;19.30;;;;;;;-0.52;75.15;100222.04;1753646;81;21223;-66
2020/12/27 07:46:14;;;;;;;45.90;18.43;;;;;;;-0.49;75.25;100221.88;1748452;81;21137;-67
2020/12/27 07:48:41;;;;;;;43.42;17.10;;;;;;;-0.47;75.03;100215.66;1744134;81;21192;-68
2020/12/27 07:51:14;;;;;;;40.90;18.25;;;;;;;-0.43;75.00;100217.18;1751367;81;21204;-67
2020/12/27 07:53:49;;;;;;;38.58;17.37;;;;;;;-0.32;74.80;100227.44;1752786;80;21885;-67
2020/12/27 07:56:28;;;;;;;40.23;16.55;;;;;;;-0.34;74.79;100222.33;1752210;81;21845;-67
2020/12/27 07:58:55;;;;;;;37.28;16.35;;;;;;;-0.33;74.38;100223.98;1747871;80;21207;-67
2020/12/27 08:01:23;;;;;;;;;;;;;;;-0.25;74.51;100219.67;1747059;81;21164;-66
2020/12/27 08:03:58;;;;;;;39.65;16.12;;;;;;;-0.28;74.04;100221.14;1742983;81;20601;-66
2020/12/27 08:06:26;;;;;;;33.38;15.50;;;;;;;-0.45;74.07;100206.06;1752607;80;21182;-67
2020/12/27 08:09:11;;;;;;;;;;;;;;;-0.26;74.57;100219.31;1754818;80;21683;-68
2020/12/27 08:11:43;;;;;;;30.50;13.20;;;;;;;-0.16;74.24;100218.33;1752144;81;20302;-68
2020/12/27 08:14:11;;;;;;;43.63;16.65;;;;;;;-0.15;74.28;100209.16;1750799;81;21228;-68
2020/12/27 08:16:37;;;;;;;;;;;;;;;-0.07;74.33;100196.58;1754196;81;21234;-67
2020/12/27 08:19:09;;;;;;;36.63;16.12;;;;;;;-0.04;73.93;100193.81;1739702;81;20482;-69
2020/12/27 08:21:36;;;;;;;39.95;16.30;;;;;;;-0.10;74.13;100187.67;1745296;80;21233;-66
2020/12/27 08:24:05;;;;;;;36.13;16.80;;;;;;;-0.20;73.84;100175.69;1752580;81;21145;-67
2020/12/27 08:26:34;;;;;;;43.48;17.57;;;;;;;-0.05;74.17;100167.50;1753086;81;21196;-69
2020/12/27 08:29:20;;;;;;;44.05;18.25;;;;;;;-0.05;74.17;100167.50;1746157;80;21156;-67
2020/12/27 08:31:57;;;;;;;40.78;19.35;;;;;;;-0.01;74.12;100167.67;1739643;80;21123;-67
2020/12/27 08:34:25;;;;;;;46.17;17.70;;;;;;;-0.05;73.83;100172.69;1746095;81;21253;-67
2020/12/27 08:36:55;;;;;;;43.52;18.52;;;;;;;-0.02;73.84;100167.33;1753171;81;21264;-68
2020/12/27 08:39:49;;;;;;;43.40;19.05;;;;;;;0.11;74.05;100158.80;1748140;81;21214;-68
2020/12/27 08:42:35;;;;;;;42.80;18.02;;;;;;;0.10;73.65;100145.47;1757216;80;21172;-69
2020/12/27 08:45:19;;;;;;;42.45;18.20;;;;;;;0.12;73.67;100143.60;1752624;80;21685;-69
2020/12/27 08:47:52;;;;;;;43.80;19.70;;;;;;;0.05;73.79;100135.78;1753205;80;21184;-69
2020/12/27 08:50:25;;;;;;;51.98;21.73;;;;;;;0.05;73.88;100126.70;1756653;80;21626;-70
2020/12/27 08:52:54;;;;;;;41.37;19.30;;;;;;;0.24;73.75;100139.47;1761426;79;21282;-70
2020/12/27 08:55:25;;;;;;;48.15;20.95;;;;;;;0.24;73.75;100139.47;1755668;79;21156;-69
2020/12/27 08:57:55;;;;;;;45.10;19.45;;;;;;;0.24;73.75;100144.66;1755300;79;21201;-67
2020/12/27 09:00:21;;;;;;;44.40;19.77;;;;;;;0.21;73.64;100117.57;1755727;80;22036;-68
2020/12/27 09:02:57;;;;;;;46.77;21.67;;;;;;;0.32;73.41;100136.77;1753426;79;20952;-68
2020/12/27 09:05:30;;;;;;;47.50;20.23;;;;;;;0.32;73.56;100130.27;1753052;80;21213;-68
2020/12/27 09:07:56;;;;;;;41.28;18.80;;;;;;;0.35;73.12;100123.59;1754306;80;21601;-68
2020/12/27 09:10:26;;;;;;;42.70;19.50;;;;;;;0.44;73.59;100113.61;1754914;80;21297;-68
2020/12/27 09:13:03;;;;;;;49.10;21.17;;;;;;;0.57;73.30;100111.92;1754764;79;21196;-69
2020/12/27 09:15:31;;;;;;;44.98;20.08;;;;;;;0.56;72.85;100112.88;1754914;80;21676;-68
2020/12/27 09:18:01;;;;;;;47.93;21.25;;;;;;;0.60;72.93;100109.14;1752592;80;21236;-70
2020/12/27 09:20:28;;;;;;;43.08;20.40;;;;;;;0.68;73.09;100093.94;1750195;80;21726;-68
2020/12/27 09:22:53;;;;;;;44.67;20.77;;;;;;;0.84;72.64;100100.75;1755008;79;21170;-71
2020/12/27 09:25:21;;;;;;;46.00;19.87;;;;;;;0.78;72.12;100093.34;1760714;79;22043;-68
2020/12/27 09:27:47;;;;;;;44.10;21.33;;;;;;;0.76;72.22;100072.64;1757168;80;21205;-68
2020/12/27 09:30:22;;;;;;;46.68;20.05;;;;;;;0.76;72.22;100072.64;1754579;80;21564;-67
2020/12/27 09:32:47;;;;;;;46.25;20.55;;;;;;;0.92;71.85;100084.23;1755120;79;21212;-68
2020/12/27 09:35:20;;;;;;;44.93;20.60;;;;;;;0.99;71.44;100081.60;1754045;80;25124;-67
2020/12/27 09:37:46;;;;;;;45.55;20.65;;;;;;;0.96;71.35;100079.20;1757705;80;21601;-68
2020/12/27 09:40:13;;;;;;;42.70;19.43;;;;;;;0.97;71.32;100086.55;1751740;80;21592;-67
2020/12/27 09:42:39;;;;;;;;;;;;;;;1.00;71.39;100074.66;1694269;81;21221;-68
2020/12/27 09:45:23;;;;;;;45.28;19.05;;;;;;;0.92;71.31;100069.08;1738680;81;20454;-69
2020/12/27 09:47:56;;;;;;;47.93;18.77;;;;;;;0.95;71.33;100058.05;1738609;81;21202;-68
2020/12/27 09:50:27;;;;;;;47.58;20.85;;;;;;;0.96;71.28;100053.20;1744616;81;21915;-68
2020/12/27 09:52:53;;;;;;;42.30;20.82;;;;;;;0.98;70.96;100050.05;1742555;80;21249;-67
2020/12/27 09:55:19;;;;;;;47.30;20.33;;;;;;;0.98;70.96;100050.05;1745238;80;21078;-67
2020/12/27 09:57:44;;;;;;;46.33;20.63;;;;;;;1.03;70.94;100054.48;1742264;82;25110;-68
2020/12/27 10:00:10;;;;;;;44.73;20.33;;;;;;;1.08;71.34;100045.92;1740574;81;22349;-70
2020/12/27 10:02:36;;;;;;;46.87;20.67;;;;;;;1.06;70.79;100041.29;1740599;81;21250;-69
2020/12/27 10:05:01;;;;;;;45.60;20.10;;;;;;;1.05;71.08;100037.02;1738899;82;21074;-69
2020/12/27 10:07:27;;;;;;;46.37;20.23;;;;;;;1.13;70.86;100039.59;1743646;81;21526;-69
2020/12/27 10:09:53;;;;;;;45.83;20.23;;;;;;;1.19;70.69;100030.10;1743819;82;27284;-67
2020/12/27 10:12:19;;;;;;;44.83;19.83;;;;;;;1.14;70.78;100030.40;1740093;82;27186;-69
2020/12/27 10:14:45;;;;;;;42.38;18.98;;;;;;;1.28;70.94;100024.78;1740386;81;21289;-70
2020/12/27 10:17:11;;;;;;;42.80;19.40;;;;;;;1.35;70.79;100024.73;1743183;81;21305;-68
2020/12/27 10:19:36;;;;;;;43.33;19.83;;;;;;;1.40;69.93;100031.31;1742609;82;20948;-68
2020/12/27 10:22:03;;;;;;;46.93;21.33;;;;;;;1.34;69.70;100018.70;1738744;82;23927;-68
2020/12/27 10:24:31;;;;;;;45.50;21.00;;;;;;;1.25;70.23;100014.10;1738076;82;21141;-69
2020/12/27 10:26:56;;;;;;;;;;;;;;;1.36;70.26;100016.83;1741184;82;21198;-70
2020/12/27 10:29:21;;;;;;;41.18;18.25;;;;;;;1.37;69.92;100018.50;1738266;81;20258;-68
2020/12/27 10:31:54;;;;;;;41.27;18.10;;;;;;;1.45;70.23;100008.07;1741398;81;20968;-68
2020/12/27 10:34:20;;;;;;;44.73;19.12;;;;;;;1.48;70.01;100003.97;1740648;82;21249;-69
2020/12/27 10:36:50;;;;;;;45.38;19.57;;;;;;;1.48;69.86;100006.57;1740587;82;21142;-68
2020/12/27 10:39:17;;;;;;;43.73;19.17;;;;;;;1.52;69.78;99995.00;1739475;81;21265;-68
2020/12/27 10:41:43;;;;;;;49.25;20.23;;;;;;;1.68;69.53;99993.05;1738991;81;21206;-68
2020/12/27 10:44:09;;;;;;;40.63;19.65;;;;;;;1.77;68.98;99989.83;1747383;81;21192;-67
2020/12/27 10:46:35;;;;;;;44.93;20.30;;;;;;;1.91;68.97;99980.23;1747249;81;27717;-68
2020/12/27 10:49:00;;;;;;;43.02;19.23;;;;;;;2.00;68.43;99963.98;1738283;81;21228;-67
2020/12/27 10:51:26;;;;;;;41.57;18.80;;;;;;;2.03;68.30;99958.56;1745334;81;21058;-68
2020/12/27 10:53:52;;;;;;;38.87;19.40;;;;;;;2.05;68.18;99948.89;1752545;80;21625;-68
2020/12/27 10:56:18;;;;;;;42.37;17.63;;;;;;;2.11;67.76;99938.05;1743258;80;21665;-68
2020/12/27 10:58:44;;;;;;;41.10;18.48;;;;;;;2.14;67.82;99931.77;1750582;81;26866;-68
2020/12/27 11:01:09;;;;;;;34.23;16.60;;;;;;;2.14;67.58;99924.80;1754339;81;26152;-68
2020/12/27 11:03:35;;;;;;;34.40;17.17;;;;;;;2.17;66.92;99917.70;1743059;81;21380;-67
2020/12/27 11:06:01;;;;;;;34.43;16.07;;;;;;;2.12;66.53;99909.73;1749042;81;22785;-70
2020/12/27 11:08:26;;;;;;;35.37;15.40;;;;;;;2.20;66.77;99909.67;1743126;81;21068;-68
2020/12/27 11:10:54;;;;;;;32.70;16.23;;;;;;;2.20;65.92;99918.80;1742973;81;25824;-68
2020/12/27 11:13:20;;;;;;;;;;;;;;;2.26;66.26;99914.45;1752969;81;21198;-69
2020/12/27 11:15:45;;;;;;;32.63;15.15;;;;;;;2.26;65.65;99898.82;1745614;81;21222;-69
2020/12/27 11:18:11;;;;;;;33.23;14.93;;;;;;;2.26;65.86;99914.45;1746625;80;22536;-69